Delta Virtual Airport Information Service

Kona International Airport

ICAO: PHKO Country: United States
Latitude: 19.7388 Longitude: -156.045
Latest Arrival : HAL108 (PHNL-PHKO) Latest Departure : DAL338 (1) (PHKO-KLAX)


WX CaptureLIVE
Data provided by noaa.gov | Fetched at 13:48:00

METAR : PHKO 301753Z 36009KT 10SM SCT042 28/21 A2991

TAF : PHKO 301751Z 3018/0118 VRB05KT P6SM FEW030 BKN060 FM302000 24009KT P6SM FEW030 SCT050 FM010600 VRB05KT P6SM SCT030 BKN050


Runway Data for PHKO
Data provided by openaviationdata.com

Runway ID Mag Var Hdg Length Elevation Surface ILS Freq ILS Id ILS Slope
17 11 173° 11041 ft 47 ft Asphalt 109.7 IKOA 3
35 11 353° 11041 ft 47 ft Asphalt -- -- --

Kona International Airport, United States
Use only for reference purposes



Not for navigational purposes.